createdAt,value
2024-02-13T00:00:40.143Z,2.83
2024-02-13T00:03:07.033Z,3.10
2024-02-13T00:05:34.422Z,3.85
2024-02-13T00:08:01.936Z,3.45
2024-02-13T00:10:29.564Z,4.05
2024-02-13T00:12:56.111Z,3.15
2024-02-13T00:15:22.744Z,3.85
2024-02-13T00:17:49.526Z,3.30
2024-02-13T00:20:16.368Z,3.40
2024-02-13T00:22:42.967Z,4.03
2024-02-13T00:25:10.383Z,3.13
2024-02-13T00:27:37.616Z,3.22
2024-02-13T00:30:04.601Z,3.30
2024-02-13T00:32:38.634Z,3.33
2024-02-13T00:35:09.599Z,3.97
2024-02-13T00:37:37.663Z,3.08
2024-02-13T00:40:11.152Z,3.33
2024-02-13T00:42:37.978Z,3.03
2024-02-13T00:45:08.491Z,2.80
2024-02-13T00:50:03.189Z,3.17
2024-02-13T00:52:29.810Z,3.10
2024-02-13T00:54:58.054Z,3.70
2024-02-13T00:57:25.501Z,3.17
2024-02-13T00:59:52.443Z,3.53
2024-02-13T01:02:19.128Z,3.75
2024-02-13T01:04:45.868Z,3.58
2024-02-13T01:07:12.426Z,3.80
2024-02-13T01:09:38.909Z,3.10
2024-02-13T01:12:05.539Z,3.53
2024-02-13T01:14:32.417Z,3.95
2024-02-13T01:16:59.079Z,3.65
2024-02-13T01:19:25.678Z,4.90
2024-02-13T01:21:52.200Z,4.47
2024-02-13T01:24:18.678Z,4.93
2024-02-13T01:26:45.851Z,4.88
2024-02-13T01:29:15.703Z,4.30
2024-02-13T01:31:42.802Z,5.43
2024-02-13T01:34:09.454Z,5.60
2024-02-13T01:36:38.855Z,6.20
2024-02-13T01:39:05.704Z,5.47
2024-02-13T01:41:32.263Z,5.45
2024-02-13T01:43:58.922Z,5.57
2024-02-13T01:46:27.739Z,5.30
2024-02-13T01:49:00.354Z,6.10
2024-02-13T01:51:35.236Z,5.90
2024-02-13T01:54:04.656Z,5.13
2024-02-13T01:56:34.654Z,6.63
2024-02-13T01:59:02.926Z,5.88
2024-02-13T02:01:30.785Z,6.05
2024-02-13T02:04:01.296Z,5.70
2024-02-13T02:08:54.715Z,6.35
2024-02-13T02:11:21.429Z,6.07
2024-02-13T02:13:48.427Z,5.95
2024-02-13T02:16:14.915Z,5.68
2024-02-13T02:18:42.245Z,5.20
2024-02-13T02:21:09.159Z,5.40
2024-02-13T02:23:35.944Z,5.70
2024-02-13T02:26:04.226Z,5.82
2024-02-13T02:28:31.075Z,5.57
2024-02-13T02:30:57.540Z,4.55
2024-02-13T02:33:24.144Z,5.05
2024-02-13T02:35:50.873Z,5.22
2024-02-13T02:38:17.845Z,5.15
2024-02-13T02:40:46.963Z,4.85
2024-02-13T02:43:13.492Z,5.85
2024-02-13T02:45:40.136Z,4.90
2024-02-13T02:48:07.474Z,4.75
2024-02-13T02:50:35.835Z,4.07
2024-02-13T02:53:02.437Z,4.20
2024-02-13T02:55:30.368Z,4.32
2024-02-13T02:57:57.804Z,3.97
2024-02-13T03:00:24.351Z,4.30
2024-02-13T03:02:50.941Z,3.58
2024-02-13T03:05:17.754Z,4.30
2024-02-13T03:07:46.794Z,3.58
2024-02-13T03:10:13.433Z,3.50
2024-02-13T03:12:40.163Z,3.50
2024-02-13T03:15:07.291Z,2.80
2024-02-13T03:17:34.097Z,2.85
2024-02-13T03:20:02.096Z,2.78
2024-02-13T03:22:29.272Z,3.08
2024-02-13T03:24:56.022Z,2.92
2024-02-13T03:27:22.534Z,3.25
2024-02-13T03:29:49.121Z,3.85
2024-02-13T03:32:15.759Z,3.28
2024-02-13T03:34:42.255Z,3.20
2024-02-13T03:37:09.770Z,3.72
2024-02-13T03:39:36.937Z,3.90
2024-02-13T03:42:03.712Z,4.00
2024-02-13T03:44:30.323Z,3.83
2024-02-13T03:46:56.864Z,4.28
2024-02-13T03:49:23.518Z,4.05
2024-02-13T03:51:50.441Z,4.40
2024-02-13T03:54:16.952Z,3.90
2024-02-13T03:56:43.693Z,3.88
2024-02-13T03:59:12.067Z,3.50
2024-02-13T04:01:40.106Z,3.30
2024-02-13T04:04:06.691Z,3.13
2024-02-13T04:06:34.466Z,3.83
2024-02-13T04:09:04.554Z,3.35
2024-02-13T04:11:31.619Z,3.50
2024-02-13T04:13:58.686Z,3.60
2024-02-13T04:16:25.296Z,2.90
2024-02-13T04:18:54.432Z,2.70
2024-02-13T04:21:21.290Z,2.65
2024-02-13T04:23:49.701Z,3.05
2024-02-13T04:26:25.982Z,2.95
2024-02-13T04:29:02.615Z,2.80
2024-02-13T04:31:29.099Z,3.22
2024-02-13T04:33:55.756Z,3.55
2024-02-13T04:36:22.360Z,3.90
2024-02-13T04:38:49.016Z,3.45
2024-02-13T04:41:17.796Z,3.63
2024-02-13T04:43:44.801Z,4.15
2024-02-13T04:46:11.333Z,4.00
2024-02-13T04:48:38.565Z,4.32
2024-02-13T04:51:08.711Z,3.88
2024-02-13T04:53:35.347Z,3.55
2024-02-13T04:56:01.926Z,4.07
2024-02-13T04:58:32.921Z,4.50
2024-02-13T05:01:10.701Z,4.43
2024-02-13T05:03:49.450Z,4.00
2024-02-13T05:06:35.400Z,4.10
2024-02-13T05:09:01.949Z,4.20
2024-02-13T05:11:28.555Z,4.30
2024-02-13T05:13:57.556Z,4.00
2024-02-13T05:16:26.860Z,5.13
2024-02-13T05:18:53.819Z,3.88
2024-02-13T05:21:21.965Z,4.13
2024-02-13T05:23:49.205Z,3.33
2024-02-13T05:26:16.397Z,3.95
2024-02-13T05:28:43.674Z,3.80
2024-02-13T05:31:10.243Z,3.70
2024-02-13T05:33:37.543Z,4.15
2024-02-13T05:36:05.300Z,4.53
2024-02-13T05:38:36.691Z,4.88
2024-02-13T05:41:03.674Z,5.90
2024-02-13T05:43:30.163Z,6.63
2024-02-13T05:45:57.977Z,6.82
2024-02-13T05:48:25.948Z,8.15
2024-02-13T05:50:52.604Z,8.40
2024-02-13T05:53:19.333Z,9.30
2024-02-13T05:55:45.922Z,9.23
2024-02-13T05:58:12.645Z,10.52
2024-02-13T06:00:39.201Z,10.50
2024-02-13T06:03:07.926Z,10.40
2024-02-13T06:05:35.082Z,11.73
2024-02-13T06:08:01.761Z,10.75
2024-02-13T06:10:28.322Z,10.80
2024-02-13T06:12:57.898Z,12.65
2024-02-13T06:15:24.618Z,10.57
2024-02-13T06:17:51.268Z,10.82
2024-02-13T06:20:19.285Z,11.10
2024-02-13T06:22:45.983Z,11.23
2024-02-13T06:25:13.885Z,10.57
2024-02-13T06:27:40.787Z,9.27
2024-02-13T06:30:08.339Z,10.60
2024-02-13T06:32:35.343Z,10.27
2024-02-13T06:35:01.914Z,9.15
2024-02-13T06:37:28.423Z,10.00
2024-02-13T06:39:54.994Z,10.98
2024-02-13T06:42:21.514Z,9.90
2024-02-13T06:44:48.714Z,9.27
2024-02-13T06:47:15.507Z,9.57
2024-02-13T06:49:42.161Z,9.85
2024-02-13T06:52:10.125Z,10.18
2024-02-13T06:54:36.605Z,9.52
2024-02-13T06:57:03.190Z,9.50
2024-02-13T06:59:31.057Z,9.88
2024-02-13T07:01:57.807Z,9.07
2024-02-13T07:04:24.552Z,9.88
2024-02-13T07:07:07.928Z,9.55
2024-02-13T07:09:41.048Z,9.47
2024-02-13T07:12:07.671Z,10.32
2024-02-13T07:14:34.326Z,9.48
2024-02-13T07:17:00.898Z,9.48
2024-02-13T07:19:27.647Z,10.02
2024-02-13T07:21:54.210Z,9.50
2024-02-13T07:24:20.764Z,9.68
2024-02-13T07:26:47.493Z,9.82
2024-02-13T07:29:14.081Z,10.10
2024-02-13T07:31:40.623Z,8.98
2024-02-13T07:34:07.254Z,8.73
2024-02-13T07:36:33.832Z,9.05
2024-02-13T07:39:01.546Z,9.68
2024-02-13T07:41:29.504Z,9.45
2024-02-13T07:43:56.166Z,8.52
2024-02-13T07:46:22.719Z,9.30
2024-02-13T07:48:49.728Z,8.35
2024-02-13T07:51:17.409Z,8.70
2024-02-13T07:53:44.056Z,8.45
2024-02-13T07:56:12.107Z,9.30
2024-02-13T07:58:39.750Z,9.18
2024-02-13T08:01:07.072Z,8.30
2024-02-13T08:03:35.590Z,8.73
2024-02-13T08:06:02.600Z,8.70
2024-02-13T08:08:29.884Z,8.30
2024-02-13T08:10:57.165Z,9.27
2024-02-13T08:13:23.676Z,8.40
2024-02-13T08:15:50.160Z,8.68
2024-02-13T08:18:19.198Z,8.55
2024-02-13T08:20:46.289Z,9.43
2024-02-13T08:23:13.142Z,9.50
2024-02-13T08:25:39.869Z,9.38
2024-02-13T08:28:07.092Z,10.02
2024-02-13T08:30:33.625Z,9.25
2024-02-13T08:33:00.484Z,8.38
2024-02-13T08:35:27.310Z,9.05
2024-02-13T08:37:56.065Z,8.48
2024-02-13T08:40:24.092Z,9.27
2024-02-13T08:42:50.652Z,9.32
2024-02-13T08:45:17.179Z,9.35
2024-02-13T08:47:43.813Z,8.75
2024-02-13T08:50:13.998Z,8.70
2024-02-13T08:52:40.657Z,10.32
2024-02-13T08:55:08.574Z,9.55
2024-02-13T08:57:35.126Z,8.93
2024-02-13T09:00:01.926Z,8.60
2024-02-13T09:02:28.444Z,9.10
2024-02-13T09:04:55.068Z,8.82
2024-02-13T09:07:21.602Z,8.68
2024-02-13T09:09:48.444Z,8.70
2024-02-13T09:12:14.925Z,8.85
2024-02-13T09:14:41.440Z,9.00
2024-02-13T09:17:09.188Z,8.15
2024-02-13T09:19:35.687Z,9.30
2024-02-13T09:22:02.156Z,9.90
2024-02-13T09:24:28.760Z,9.57
2024-02-13T09:26:55.460Z,10.30
2024-02-13T09:29:22.041Z,9.18
2024-02-13T09:31:48.695Z,9.85
2024-02-13T09:34:15.496Z,9.52
2024-02-13T09:36:42.564Z,9.77
2024-02-13T09:39:10.164Z,8.45
2024-02-13T09:41:38.039Z,8.60
2024-02-13T09:44:05.053Z,9.93
2024-02-13T09:46:32.720Z,9.38
2024-02-13T09:49:13.718Z,8.70
2024-02-13T09:51:41.806Z,8.40
2024-02-13T09:54:09.995Z,8.73
2024-02-13T09:56:39.679Z,9.27
2024-02-13T09:59:08.331Z,8.23
2024-02-13T10:01:36.274Z,8.80
2024-02-13T10:04:04.899Z,7.80
2024-02-13T10:06:31.592Z,10.15
2024-02-13T10:09:00.176Z,8.27
2024-02-13T10:11:32.033Z,9.77
2024-02-13T10:13:58.608Z,8.90
2024-02-13T10:16:28.732Z,8.70
2024-02-13T10:18:58.637Z,9.23
2024-02-13T10:21:26.976Z,9.02
2024-02-13T10:24:14.810Z,8.60
2024-02-13T10:26:41.698Z,9.57
2024-02-13T10:29:08.938Z,9.48
2024-02-13T10:31:36.599Z,9.02
2024-02-13T10:34:08.447Z,10.05
2024-02-13T10:36:42.482Z,10.20
2024-02-13T10:39:13.207Z,9.32
2024-02-13T10:41:41.872Z,9.57
2024-02-13T10:44:13.073Z,9.20
2024-02-13T10:46:40.750Z,9.77
2024-02-13T10:49:21.611Z,9.85
2024-02-13T10:51:50.279Z,10.35
2024-02-13T10:54:17.172Z,10.48
2024-02-13T10:56:45.464Z,11.18
2024-02-13T10:59:13.174Z,9.75
2024-02-13T11:01:42.699Z,9.93
2024-02-13T11:04:10.763Z,11.02
2024-02-13T11:06:37.553Z,11.02
2024-02-13T11:09:13.325Z,11.13
2024-02-13T11:14:22.889Z,10.68
2024-02-13T11:17:00.308Z,12.30
2024-02-13T11:19:41.267Z,11.18
2024-02-13T11:22:10.415Z,10.57
2024-02-13T11:24:50.728Z,11.52
2024-02-13T11:30:01.031Z,10.43
2024-02-13T11:32:33.323Z,10.70
2024-02-13T11:35:00.935Z,11.07
2024-02-13T11:37:31.554Z,11.57
2024-02-13T11:42:33.721Z,10.50
2024-02-13T11:45:09.603Z,10.57
2024-02-13T11:47:36.496Z,10.02
2024-02-13T11:50:08.393Z,10.52
2024-02-13T11:52:35.773Z,10.55
2024-02-13T11:55:02.470Z,10.93
2024-02-13T11:57:29.341Z,10.15
2024-02-13T12:00:06.489Z,10.40
2024-02-13T12:02:34.640Z,10.30
2024-02-13T12:05:01.492Z,10.57
2024-02-13T12:07:29.109Z,11.13
2024-02-13T12:09:56.084Z,10.40
2024-02-13T12:12:22.911Z,10.05
2024-02-13T12:14:53.789Z,10.60
2024-02-13T12:17:22.094Z,10.65
2024-02-13T12:19:49.159Z,11.25
2024-02-13T12:22:17.884Z,11.27
2024-02-13T12:24:48.691Z,11.48
2024-02-13T12:27:17.050Z,10.52
2024-02-13T12:29:44.578Z,11.23
2024-02-13T12:32:18.939Z,11.40
2024-02-13T12:34:49.934Z,11.55
2024-02-13T12:37:21.466Z,11.68
2024-02-13T12:39:48.800Z,12.13
2024-02-13T12:42:18.626Z,11.05
2024-02-13T12:44:45.628Z,11.25
2024-02-13T12:47:14.815Z,12.43
2024-02-13T12:49:44.593Z,12.27
2024-02-13T12:52:23.546Z,11.98
2024-02-13T12:54:51.163Z,11.85
2024-02-13T12:57:19.653Z,12.57
2024-02-13T12:59:46.163Z,12.98
2024-02-13T13:02:14.999Z,14.02
2024-02-13T13:04:42.178Z,13.10
2024-02-13T13:07:08.920Z,14.43
2024-02-13T13:09:37.306Z,14.77
2024-02-13T13:12:06.834Z,15.90
2024-02-13T13:14:35.650Z,15.15
2024-02-13T13:17:02.221Z,15.02
2024-02-13T13:19:30.570Z,14.90
2024-02-13T13:21:57.448Z,15.02
2024-02-13T13:24:24.273Z,15.23
2024-02-13T13:26:51.788Z,15.43
2024-02-13T13:29:18.885Z,14.52
2024-02-13T13:31:48.714Z,15.25
2024-02-13T13:34:21.303Z,15.87
2024-02-13T13:36:48.679Z,16.35
2024-02-13T13:39:15.254Z,15.27
2024-02-13T13:41:42.560Z,16.00
2024-02-13T13:44:14.482Z,15.60
2024-02-13T13:46:42.196Z,15.75
2024-02-13T13:49:09.023Z,15.90
2024-02-13T13:51:35.703Z,17.00
2024-02-13T13:54:02.450Z,16.58
2024-02-13T13:56:29.134Z,17.00
2024-02-13T13:58:55.633Z,17.60
2024-02-13T14:01:22.712Z,16.67
2024-02-13T14:03:49.648Z,16.02
2024-02-13T14:06:16.656Z,15.88
2024-02-13T14:08:43.408Z,17.20
2024-02-13T14:11:11.185Z,16.95
2024-02-13T14:13:37.834Z,16.98
2024-02-13T14:16:04.803Z,15.20
2024-02-13T14:18:31.928Z,15.70
2024-02-13T14:20:58.870Z,16.42
2024-02-13T14:23:25.561Z,16.10
2024-02-13T14:25:52.284Z,15.68
2024-02-13T14:28:19.499Z,16.27
2024-02-13T14:30:47.307Z,16.40
2024-02-13T14:33:14.542Z,16.73
2024-02-13T14:35:43.332Z,15.25
2024-02-13T14:38:09.944Z,16.52
2024-02-13T14:40:40.732Z,16.58
2024-02-13T14:43:08.636Z,17.27
2024-02-13T14:45:40.061Z,17.88
2024-02-13T14:48:10.461Z,18.23
2024-02-13T14:50:39.484Z,18.95
2024-02-13T14:53:07.981Z,18.20
2024-02-13T14:55:35.101Z,18.60
2024-02-13T15:00:32.379Z,19.20
2024-02-13T15:03:01.153Z,19.15
2024-02-13T15:05:28.215Z,19.98
2024-02-13T15:07:55.207Z,18.90
2024-02-13T15:10:21.779Z,18.40
2024-02-13T15:12:48.488Z,18.90
2024-02-13T15:15:18.631Z,17.92
2024-02-13T15:17:47.132Z,20.45
2024-02-13T15:20:15.811Z,18.13
2024-02-13T15:22:42.866Z,17.38
2024-02-13T15:25:10.287Z,16.98
2024-02-13T15:27:39.328Z,18.40
2024-02-13T15:30:09.418Z,17.42
2024-02-13T15:32:36.055Z,17.05
2024-02-13T15:35:06.505Z,18.98
2024-02-13T15:40:37.064Z,17.65
2024-02-13T15:43:29.936Z,18.00
2024-02-13T15:46:14.662Z,18.80
2024-02-13T15:48:43.665Z,18.23
2024-02-13T15:51:10.541Z,17.80
2024-02-13T15:53:38.472Z,18.17
2024-02-13T15:56:06.989Z,18.13
2024-02-13T15:58:33.485Z,17.50
2024-02-13T16:01:00.728Z,17.77
2024-02-13T16:03:27.801Z,17.58
2024-02-13T16:05:56.258Z,17.90
2024-02-13T16:08:25.300Z,21.15
2024-02-13T16:10:52.502Z,19.73
2024-02-13T16:13:20.093Z,20.77
2024-02-13T16:15:47.871Z,20.30
2024-02-13T16:18:14.719Z,18.85
2024-02-13T16:20:41.634Z,18.20
2024-02-13T16:23:08.349Z,17.38
2024-02-13T16:25:35.919Z,17.40
2024-02-13T16:28:06.244Z,18.27
2024-02-13T16:30:34.584Z,16.13
2024-02-13T16:33:02.271Z,18.17
2024-02-13T16:35:29.246Z,18.42
2024-02-13T16:37:55.917Z,16.88
2024-02-13T16:40:22.922Z,17.67
2024-02-13T16:42:56.161Z,12.35
2024-02-13T16:45:25.300Z,11.93
2024-02-13T16:47:53.342Z,11.20
2024-02-13T16:50:20.183Z,10.07
2024-02-13T16:52:47.583Z,9.02
2024-02-13T16:55:14.888Z,9.38
2024-02-13T16:57:42.326Z,8.50
2024-02-13T17:00:11.735Z,8.38
2024-02-13T17:02:40.186Z,8.60
2024-02-13T17:05:12.451Z,10.90
2024-02-13T17:07:43.229Z,11.82
2024-02-13T17:10:18.961Z,12.25
2024-02-13T17:12:45.501Z,13.75
2024-02-13T17:15:14.057Z,14.27
2024-02-13T17:17:42.223Z,14.55
2024-02-13T17:20:12.850Z,15.38
2024-02-13T17:22:42.901Z,15.90
2024-02-13T17:25:11.133Z,16.88
2024-02-13T17:27:42.474Z,16.15
2024-02-13T17:30:13.850Z,15.85
2024-02-13T17:32:43.056Z,14.95
2024-02-13T17:35:10.098Z,16.88
2024-02-13T17:37:37.287Z,15.85
2024-02-13T17:40:05.421Z,16.48
2024-02-13T17:42:34.226Z,16.88
2024-02-13T17:45:00.827Z,17.42
2024-02-13T17:47:27.419Z,17.02
2024-02-13T17:49:54.417Z,17.02
2024-02-13T17:52:21.009Z,17.25
2024-02-13T17:54:47.557Z,16.90
2024-02-13T17:57:14.081Z,18.00
2024-02-13T17:59:40.602Z,15.10
2024-02-13T18:02:08.634Z,16.73
2024-02-13T18:04:36.275Z,17.10
2024-02-13T18:07:03.114Z,15.85
2024-02-13T18:09:29.635Z,15.05
2024-02-13T18:11:59.788Z,15.55
2024-02-13T18:14:28.476Z,14.88
2024-02-13T18:16:55.172Z,14.32
2024-02-13T18:19:22.308Z,14.95
2024-02-13T18:21:52.136Z,13.93
2024-02-13T18:24:18.929Z,14.60
2024-02-13T18:26:46.883Z,14.27
2024-02-13T18:29:13.539Z,13.98
2024-02-13T18:31:40.152Z,13.50
2024-02-13T18:34:06.923Z,13.85
2024-02-13T18:36:33.610Z,13.35
2024-02-13T18:39:00.252Z,14.25
2024-02-13T18:41:27.215Z,14.70
2024-02-13T18:43:53.783Z,14.50
2024-02-13T18:46:20.591Z,14.35
2024-02-13T18:48:47.516Z,13.82
2024-02-13T18:51:17.576Z,13.30
2024-02-13T18:53:44.145Z,13.23
2024-02-13T18:56:10.649Z,13.85
2024-02-13T18:58:39.641Z,13.98
2024-02-13T19:01:06.382Z,14.07
2024-02-13T19:03:32.959Z,13.65
2024-02-13T19:06:04.594Z,13.77
2024-02-13T19:08:32.637Z,14.90
2024-02-13T19:10:59.715Z,14.60
2024-02-13T19:13:29.671Z,13.98
2024-02-13T19:15:56.199Z,14.13
2024-02-13T19:18:22.842Z,14.05
2024-02-13T19:20:52.919Z,14.15
2024-02-13T19:23:22.826Z,15.40
2024-02-13T19:25:49.720Z,14.30
2024-02-13T19:28:17.925Z,14.43
2024-02-13T19:30:46.867Z,15.43
2024-02-13T19:33:14.511Z,14.15
2024-02-13T19:35:41.830Z,16.98
2024-02-13T19:38:10.846Z,15.35
2024-02-13T19:40:39.411Z,13.35
2024-02-13T19:43:05.898Z,13.65
2024-02-13T19:45:32.560Z,12.55
2024-02-13T19:47:59.142Z,13.45
2024-02-13T19:50:25.669Z,12.77
2024-02-13T19:52:52.177Z,11.65
2024-02-13T19:55:20.008Z,12.05
2024-02-13T19:57:46.554Z,11.38
2024-02-13T20:00:14.082Z,10.73
2024-02-13T20:02:40.682Z,10.73
2024-02-13T20:05:07.462Z,10.75
2024-02-13T20:07:38.490Z,11.55
2024-02-13T20:10:06.812Z,10.82
2024-02-13T20:12:33.458Z,11.38
2024-02-13T20:15:00.467Z,11.10
2024-02-13T20:17:27.628Z,9.88
2024-02-13T20:19:54.218Z,10.20
2024-02-13T20:22:20.732Z,11.05
2024-02-13T20:24:48.578Z,10.57
2024-02-13T20:27:15.153Z,10.82
2024-02-13T20:29:43.752Z,10.55
2024-02-13T20:32:10.632Z,9.68
2024-02-13T20:34:38.352Z,10.45
2024-02-13T20:37:05.122Z,10.20
2024-02-13T20:39:31.749Z,9.45
2024-02-13T20:41:59.897Z,10.50
2024-02-13T20:44:27.977Z,11.00
2024-02-13T20:46:55.072Z,10.65
2024-02-13T20:49:23.856Z,10.55
2024-02-13T20:51:50.407Z,10.52
2024-02-13T20:54:17.129Z,10.27
2024-02-13T20:56:49.845Z,10.60
2024-02-13T20:59:18.665Z,9.55
2024-02-13T21:01:48.588Z,11.65
2024-02-13T21:04:15.236Z,10.65
2024-02-13T21:06:44.773Z,10.60
2024-02-13T21:09:13.154Z,10.48
2024-02-13T21:11:40.853Z,10.15
2024-02-13T21:14:07.771Z,10.48
2024-02-13T21:16:34.499Z,11.10
2024-02-13T21:19:02.078Z,10.27
2024-02-13T21:21:47.494Z,11.02
2024-02-13T21:24:14.305Z,10.38
2024-02-13T21:26:41.298Z,12.40
2024-02-13T21:29:08.539Z,10.63
2024-02-13T21:31:35.607Z,11.05
2024-02-13T21:34:06.862Z,10.38
2024-02-13T21:36:35.876Z,10.60
2024-02-13T21:39:08.451Z,10.85
2024-02-13T21:41:36.129Z,10.18
2024-02-13T21:44:12.875Z,10.50
2024-02-13T21:46:39.405Z,10.65
2024-02-13T21:49:07.766Z,11.07
2024-02-13T21:51:34.413Z,9.82
2024-02-13T21:54:01.872Z,8.98
2024-02-13T21:56:28.611Z,8.85
2024-02-13T21:58:56.274Z,8.90
2024-02-13T22:01:22.854Z,9.63
2024-02-13T22:03:49.734Z,8.85
2024-02-13T22:06:16.291Z,9.20
2024-02-13T22:08:44.160Z,8.20
2024-02-13T22:11:10.824Z,8.52
2024-02-13T22:13:37.484Z,9.77
2024-02-13T22:16:05.204Z,8.27
2024-02-13T22:18:31.831Z,8.85
2024-02-13T22:20:58.757Z,7.50
2024-02-13T22:23:25.842Z,8.30
2024-02-13T22:25:52.756Z,8.02
2024-02-13T22:28:19.238Z,8.25
2024-02-13T22:30:47.157Z,7.53
2024-02-13T22:33:14.238Z,7.53
2024-02-13T22:35:41.868Z,7.47
2024-02-13T22:38:08.687Z,7.70
2024-02-13T22:40:35.279Z,7.15
2024-02-13T22:43:03.206Z,7.55
2024-02-13T22:45:29.807Z,7.00
2024-02-13T22:48:02.059Z,7.55
2024-02-13T22:50:29.726Z,7.53
2024-02-13T22:52:59.968Z,7.40
2024-02-13T22:55:30.497Z,7.82
2024-02-13T23:00:43.996Z,7.57
2024-02-13T23:03:10.959Z,7.25
2024-02-13T23:05:38.776Z,7.65
2024-02-13T23:08:06.949Z,8.07
2024-02-13T23:10:33.951Z,8.15
2024-02-13T23:13:00.527Z,7.22
2024-02-13T23:15:27.139Z,8.10
2024-02-13T23:17:53.844Z,8.40
2024-02-13T23:20:22.560Z,7.95
2024-02-13T23:22:53.077Z,8.82
2024-02-13T23:25:21.137Z,8.18
2024-02-13T23:27:48.455Z,8.80
2024-02-13T23:30:15.758Z,8.27
2024-02-13T23:32:42.939Z,7.82
2024-02-13T23:35:09.864Z,6.88
2024-02-13T23:37:36.394Z,7.50
2024-02-13T23:40:12.881Z,7.35
2024-02-13T23:42:39.973Z,8.32
2024-02-13T23:45:08.120Z,7.88
2024-02-13T23:47:34.743Z,7.60
2024-02-13T23:50:01.757Z,7.40
2024-02-13T23:52:28.417Z,7.57
2024-02-13T23:54:55.205Z,6.82
2024-02-13T23:57:21.795Z,7.60
2024-02-13T23:59:48.533Z,7.20
